Ostatnio dodane

Tytuł Autor Odpowiedzi Last Postikona sortowania Odsłon łącznie Odsłon dzisiaj
Regulator temperatury+max 6675 Grzeniu 73 9 2014-10-29 21:11 10 885 5 424
Sterownik świateł do samochodu - jak podać sygnały na mikrokontroler? mareks6 22 2014-10-28 17:09 6 920 5 228
Atmega fusebit doctor Łukasz 4 2014-10-07 10:09 14 118 7 690
USBasp problem z programowaniem Eagle 8 2014-10-05 05:49 7 590 4 492
Bascom - Sterowanie wyjściami z impulsatora? Mirix 7 2014-10-01 15:49 7 777 5 813
RFM12B - łatwiejsze niż myślisz EDC 2014-09-15 00:56 9 110 6 626
Przerywacz kierunkowskazów APE 13A - nie działa poprawnie po naprawie Motorpal 2 2014-09-11 13:26 5 155 4 369
Cyfrowy Przedwzmacniacz mirley 102 2014-08-28 21:21 50 278 19 358
Sterownik C.O. z monitoringiem EDC 3 2014-08-27 16:35 5 797 4 515
AVR Odtwarzacz wav demsy1 2 2014-08-16 12:42 4 934 4 135
problem ze wzmacniaczem na Tda 1905 Misiek 6 2014-08-09 20:52 14 979 5 492
Timer+pomiar temperatury marekszy 14 2014-07-19 20:50 5 463 4 527
Przetwornik ADC maro 7 2014-07-16 10:11 5 440 4 363
Mirley.net Uruchomiona mirley 2014-07-16 08:05 5 898 4 632
Przerwanie operacji WAIT bascom barni 1 2014-07-10 14:08 5 367 4 414
Nowy soft przez USB/RS232 czyli BOOTLOADER EDC 13 2014-07-03 08:34 8 992 7 088
Zapis i odczyt do eeprom demsy1 6 2014-06-27 11:35 5 677 4 649
Regulator PWM DC 15A Chester 15 2014-06-25 18:00 9 266 7 032
AVT1460 Chester 2 2014-06-25 17:57 4 830 4 037
Bascom-PWM nanab 88 2014-06-24 05:21 44 644 15 189
Przerwania INT0 i INT1 jacek1987-1987 21 2014-06-22 22:04 8 012 6 219
Zwiększenie zasięgu działania czujnika na fototranzystorze i diodzie IR jacek1987-1987 17 2014-06-17 22:46 7 889 6 278
Big Endian w atmega32 wchpikus 2 2014-06-14 11:57 5 860 4 492
Modyfikacja kierownicy PC MSideWinder FFB (pomysły) Radzioo 5 2014-06-13 18:15 8 582 6 349
termometr_uniwersalny wersja na 2051 kaktus 4 2014-06-07 16:29 6 737 4 086